createdAt,value
2023-09-26T00:00:52.942Z,15.00
2023-09-26T00:03:47.404Z,14.30
2023-09-26T00:06:41.476Z,27.10
2023-09-26T00:09:36.549Z,18.50
2023-09-26T00:12:30.844Z,15.70
2023-09-26T00:15:24.944Z,15.30
2023-09-26T00:18:19.458Z,16.50
2023-09-26T00:21:13.525Z,15.40
2023-09-26T00:24:08.261Z,14.10
2023-09-26T00:27:02.463Z,14.50
2023-09-26T00:29:57.122Z,14.40
2023-09-26T00:32:51.085Z,13.20
2023-09-26T00:35:45.248Z,14.10
2023-09-26T00:38:39.393Z,16.30
2023-09-26T00:41:34.557Z,17.30
2023-09-26T00:44:29.107Z,15.40
2023-09-26T00:47:23.307Z,13.40
2023-09-26T00:50:17.658Z,14.40
2023-09-26T00:53:11.836Z,15.30
2023-09-26T00:56:03.117Z,22.40
2023-09-26T00:58:57.345Z,21.00
2023-09-26T01:01:52.366Z,14.70
2023-09-26T01:04:46.693Z,16.80
2023-09-26T01:07:42.160Z,15.60
2023-09-26T01:10:37.601Z,14.70
2023-09-26T01:13:31.691Z,15.60
2023-09-26T01:16:25.937Z,12.30
2023-09-26T01:19:20.057Z,13.70
2023-09-26T01:22:35.045Z,15.70
2023-09-26T01:25:29.499Z,14.60
2023-09-26T01:28:23.530Z,14.60
2023-09-26T01:31:17.653Z,13.80
2023-09-26T01:34:12.271Z,15.60
2023-09-26T01:37:06.312Z,13.00
2023-09-26T01:40:00.722Z,13.60
2023-09-26T01:42:54.879Z,12.40
2023-09-26T01:45:49.493Z,13.10
2023-09-26T01:48:43.393Z,17.00
2023-09-26T01:51:37.403Z,14.40
2023-09-26T01:54:31.677Z,13.30
2023-09-26T01:57:26.135Z,16.00
2023-09-26T02:00:21.806Z,14.00
2023-09-26T02:03:15.739Z,13.60
2023-09-26T02:06:10.022Z,13.70
2023-09-26T02:09:05.024Z,13.20
2023-09-26T02:11:59.425Z,15.90
2023-09-26T02:14:54.577Z,12.70
2023-09-26T02:17:48.735Z,14.20
2023-09-26T02:20:42.679Z,13.10
2023-09-26T02:23:37.029Z,14.90
2023-09-26T02:26:31.289Z,13.90
2023-09-26T02:29:25.571Z,14.60
2023-09-26T02:32:19.590Z,15.60
2023-09-26T02:35:17.023Z,14.50
2023-09-26T02:38:11.277Z,14.80
2023-09-26T02:41:05.822Z,15.40
2023-09-26T02:44:00.707Z,14.60
2023-09-26T02:46:54.762Z,15.90
2023-09-26T02:49:49.454Z,15.00
2023-09-26T02:52:46.056Z,14.70
2023-09-26T02:55:44.514Z,12.30
2023-09-26T02:58:38.523Z,16.50
2023-09-26T03:01:34.100Z,15.00
2023-09-26T03:04:28.464Z,15.30
2023-09-26T03:07:22.758Z,15.50
2023-09-26T03:10:17.757Z,17.00
2023-09-26T03:13:12.158Z,14.90
2023-09-26T03:16:10.060Z,15.70
2023-09-26T03:19:04.530Z,15.60
2023-09-26T03:21:58.812Z,15.10
2023-09-26T03:24:52.908Z,16.10
2023-09-26T03:27:49.672Z,16.90
2023-09-26T03:30:47.829Z,18.30
2023-09-26T03:33:42.321Z,18.30
2023-09-26T03:36:36.168Z,16.60
2023-09-26T03:39:30.129Z,15.40
2023-09-26T03:42:27.148Z,20.60
2023-09-26T03:45:21.360Z,21.20
2023-09-26T03:48:15.644Z,17.80
2023-09-26T03:51:16.770Z,17.00
2023-09-26T03:54:10.812Z,18.00
2023-09-26T03:57:05.670Z,18.50
2023-09-26T03:59:59.687Z,18.30
2023-09-26T04:02:55.648Z,23.10
2023-09-26T04:06:02.802Z,19.40
2023-09-26T04:08:56.820Z,18.50
2023-09-26T04:11:51.453Z,21.70
2023-09-26T04:14:45.556Z,15.10
2023-09-26T04:17:39.998Z,18.40
2023-09-26T04:20:38.350Z,17.60
2023-09-26T04:23:32.991Z,21.30
2023-09-26T04:26:28.560Z,16.50
2023-09-26T04:29:23.077Z,16.80
2023-09-26T04:32:17.109Z,16.10
2023-09-26T04:35:12.395Z,19.90
2023-09-26T04:38:07.117Z,14.60
2023-09-26T04:41:04.729Z,17.90
2023-09-26T04:43:59.054Z,18.30
2023-09-26T04:46:53.328Z,15.90
2023-09-26T04:49:47.836Z,17.30
2023-09-26T04:52:41.804Z,17.00
2023-09-26T04:55:37.750Z,15.30
2023-09-26T04:58:33.688Z,18.40
2023-09-26T05:01:27.889Z,16.60
2023-09-26T05:04:22.365Z,15.00
2023-09-26T05:07:17.551Z,16.50
2023-09-26T05:10:13.832Z,15.40
2023-09-26T05:13:08.801Z,15.40
2023-09-26T05:16:02.862Z,15.40
2023-09-26T05:18:57.281Z,15.80
2023-09-26T05:21:51.531Z,19.70
2023-09-26T05:24:45.482Z,16.40
2023-09-26T05:27:40.699Z,15.70
2023-09-26T05:30:37.269Z,20.70
2023-09-26T05:33:31.394Z,16.10
2023-09-26T05:36:25.565Z,16.60
2023-09-26T05:39:20.047Z,16.00
2023-09-26T05:42:14.286Z,17.20
2023-09-26T05:45:12.789Z,18.30
2023-09-26T05:48:07.861Z,18.00
2023-09-26T05:51:06.078Z,16.70
2023-09-26T05:54:00.848Z,16.00
2023-09-26T05:56:54.850Z,14.50
2023-09-26T05:59:49.281Z,13.30
2023-09-26T06:02:44.067Z,16.20
2023-09-26T06:05:40.761Z,16.50
2023-09-26T06:08:35.595Z,17.70
2023-09-26T06:11:30.261Z,16.00
2023-09-26T06:14:26.766Z,14.00
2023-09-26T06:17:21.384Z,13.70
2023-09-26T06:20:16.968Z,14.10
2023-09-26T06:23:11.582Z,15.10
2023-09-26T06:26:05.876Z,18.00
2023-09-26T06:29:00.402Z,15.20
2023-09-26T06:31:54.402Z,15.90
2023-09-26T06:34:50.611Z,16.60
2023-09-26T06:37:46.247Z,17.70
2023-09-26T06:40:40.715Z,17.80
2023-09-26T06:43:35.178Z,17.70
2023-09-26T06:46:30.296Z,19.20
2023-09-26T06:49:24.583Z,14.10
2023-09-26T06:52:18.895Z,15.40
2023-09-26T06:55:13.941Z,16.90
2023-09-26T06:58:08.957Z,20.70
2023-09-26T07:01:03.204Z,19.20
2023-09-26T07:03:57.664Z,16.90
2023-09-26T07:06:51.882Z,21.30
2023-09-26T07:09:46.175Z,14.00
2023-09-26T07:12:41.239Z,16.90
2023-09-26T07:15:40.140Z,15.80
2023-09-26T07:18:34.951Z,14.70
2023-09-26T07:21:29.136Z,15.90
2023-09-26T07:24:28.883Z,18.40
2023-09-26T07:27:29.291Z,13.30
2023-09-26T07:30:23.721Z,16.90
2023-09-26T07:33:18.313Z,18.50
2023-09-26T07:36:13.201Z,19.60
2023-09-26T07:39:09.410Z,19.80
2023-09-26T07:42:04.746Z,18.80
2023-09-26T07:45:01.788Z,19.30
2023-09-26T07:47:56.110Z,15.20
2023-09-26T07:50:51.073Z,17.80
2023-09-26T07:53:45.572Z,18.30
2023-09-26T07:56:40.007Z,16.90
2023-09-26T07:59:35.321Z,19.50
2023-09-26T08:02:29.626Z,20.10
2023-09-26T08:05:23.835Z,18.00
2023-09-26T08:08:18.242Z,18.10
2023-09-26T08:11:14.165Z,14.90
2023-09-26T08:14:08.746Z,17.10
2023-09-26T08:17:03.156Z,17.10
2023-09-26T08:19:57.151Z,16.30
2023-09-26T08:22:51.198Z,19.30
2023-09-26T08:25:45.173Z,14.90
2023-09-26T08:28:39.319Z,14.50
2023-09-26T08:31:33.892Z,18.80
2023-09-26T08:34:28.205Z,20.10
2023-09-26T08:37:22.564Z,17.10
2023-09-26T08:40:17.795Z,16.70
2023-09-26T08:43:14.352Z,16.80
2023-09-26T08:46:09.388Z,21.00
2023-09-26T08:49:07.160Z,18.50
2023-09-26T08:52:02.078Z,17.40
2023-09-26T08:54:56.320Z,24.10
2023-09-26T08:57:52.932Z,21.20
2023-09-26T09:00:47.713Z,22.50
2023-09-26T09:03:42.809Z,20.40
2023-09-26T09:06:36.967Z,21.00
2023-09-26T09:09:31.234Z,18.50
2023-09-26T09:12:27.550Z,19.90
2023-09-26T09:15:29.438Z,18.80
2023-09-26T09:18:34.492Z,17.30
2023-09-26T09:21:32.291Z,16.80
2023-09-26T09:24:56.446Z,17.40
2023-09-26T09:27:52.725Z,17.20
2023-09-26T09:30:47.429Z,15.60
2023-09-26T09:33:45.252Z,17.20
2023-09-26T09:36:40.904Z,16.20
2023-09-26T09:39:36.639Z,17.80
2023-09-26T09:42:25.992Z,17.40
2023-09-26T09:45:20.634Z,20.00
2023-09-26T09:48:15.781Z,15.50
2023-09-26T09:51:13.260Z,16.70
2023-09-26T09:57:08.686Z,15.00
2023-09-26T10:00:03.749Z,14.90
2023-09-26T10:03:02.103Z,16.10
2023-09-26T10:05:58.264Z,16.20
2023-09-26T10:08:55.104Z,15.10
2023-09-26T10:11:49.982Z,14.70
2023-09-26T10:14:44.039Z,15.50
2023-09-26T10:17:38.063Z,15.90
2023-09-26T10:20:51.663Z,18.70
2023-09-26T10:24:21.027Z,16.60
2023-09-26T10:27:27.408Z,16.40
2023-09-26T10:30:23.988Z,19.10
2023-09-26T10:33:36.724Z,16.90
2023-09-26T10:36:33.593Z,16.60
2023-09-26T10:39:40.741Z,16.40
2023-09-26T10:45:33.550Z,19.20
2023-09-26T10:48:27.465Z,16.60
2023-09-26T10:51:21.876Z,14.60
2023-09-26T10:54:15.823Z,17.00
2023-09-26T10:57:10.237Z,21.40
2023-09-26T11:00:13.345Z,14.50
2023-09-26T11:03:08.721Z,16.30
2023-09-26T11:05:53.764Z,15.20
2023-09-26T11:08:49.611Z,13.60
2023-09-26T11:11:44.467Z,13.10
2023-09-26T11:14:38.465Z,12.20
2023-09-26T11:17:33.636Z,12.20
2023-09-26T11:20:31.089Z,13.10
2023-09-26T11:23:40.254Z,13.10
2023-09-26T11:26:34.231Z,13.30
2023-09-26T11:29:29.141Z,12.60
2023-09-26T11:32:23.276Z,13.90
2023-09-26T11:35:18.620Z,12.40
2023-09-26T11:38:12.503Z,14.10
2023-09-26T11:41:06.737Z,12.00
2023-09-26T11:44:21.005Z,11.50
2023-09-26T11:47:15.158Z,13.90
2023-09-26T11:50:11.704Z,11.90
2023-09-26T11:53:06.307Z,11.10
2023-09-26T11:56:01.223Z,11.30
2023-09-26T11:58:55.069Z,11.60
2023-09-26T12:01:49.308Z,13.80
2023-09-26T12:04:44.819Z,13.70
2023-09-26T12:07:38.842Z,11.90
2023-09-26T12:10:32.757Z,16.40
2023-09-26T12:13:26.617Z,12.00
2023-09-26T12:16:21.367Z,11.70
2023-09-26T12:19:15.217Z,11.20
2023-09-26T12:22:09.355Z,11.10
2023-09-26T12:25:03.437Z,10.50
2023-09-26T12:27:57.538Z,9.50
2023-09-26T12:30:51.781Z,8.60
2023-09-26T12:33:45.752Z,8.80
2023-09-26T12:36:39.992Z,10.00
2023-09-26T12:39:35.252Z,8.30
2023-09-26T12:42:29.569Z,11.50
2023-09-26T12:45:23.640Z,9.40
2023-09-26T12:48:17.571Z,9.50
2023-09-26T12:51:22.135Z,10.80
2023-09-26T12:54:19.175Z,10.30
2023-09-26T12:57:15.900Z,10.30
2023-09-26T13:00:12.750Z,9.30
2023-09-26T13:03:08.262Z,9.40
2023-09-26T13:06:02.322Z,12.00
2023-09-26T13:08:56.383Z,13.10
2023-09-26T13:11:50.163Z,13.00
2023-09-26T13:14:44.044Z,11.20
2023-09-26T13:17:38.043Z,9.90
2023-09-26T13:20:18.912Z,9.50
2023-09-26T13:22:54.699Z,10.30
2023-09-26T13:25:48.599Z,12.10
2023-09-26T13:28:42.443Z,13.00
2023-09-26T13:31:38.241Z,9.30
2023-09-26T13:34:32.617Z,10.80
2023-09-26T13:37:26.446Z,12.50
2023-09-26T13:40:05.811Z,10.60
2023-09-26T13:42:48.215Z,13.50
2023-09-26T13:45:22.255Z,10.40
2023-09-26T13:48:16.165Z,10.20
2023-09-26T13:51:06.787Z,9.80
2023-09-26T13:54:00.949Z,11.40
2023-09-26T13:56:55.035Z,12.80
2023-09-26T13:59:50.701Z,9.80
2023-09-26T14:02:44.665Z,10.50
2023-09-26T14:05:38.722Z,9.00
2023-09-26T14:08:33.836Z,10.40
2023-09-26T14:11:28.705Z,12.70
2023-09-26T14:14:22.664Z,10.90
2023-09-26T14:17:16.509Z,10.00
2023-09-26T14:20:12.376Z,11.60
2023-09-26T14:23:07.211Z,11.70
2023-09-26T14:26:01.329Z,11.90
2023-09-26T14:28:59.984Z,12.20
2023-09-26T14:31:53.880Z,13.70
2023-09-26T14:34:47.831Z,16.00
2023-09-26T14:37:42.138Z,13.00
2023-09-26T14:40:36.211Z,13.20
2023-09-26T14:43:30.097Z,13.50
2023-09-26T14:46:24.226Z,12.00
2023-09-26T14:49:18.042Z,13.60
2023-09-26T14:52:11.929Z,13.70
2023-09-26T14:55:06.949Z,13.80
2023-09-26T14:58:01.155Z,15.40
2023-09-26T15:00:54.954Z,16.50
2023-09-26T15:03:48.885Z,19.90
2023-09-26T15:06:42.822Z,14.80
2023-09-26T15:09:36.735Z,15.90
2023-09-26T15:12:32.899Z,14.60
2023-09-26T15:15:29.317Z,15.60
2023-09-26T15:18:23.427Z,14.00
2023-09-26T15:21:17.193Z,12.50
2023-09-26T15:24:11.662Z,13.40
2023-09-26T15:27:05.593Z,15.00
2023-09-26T15:29:51.021Z,14.60
2023-09-26T15:32:45.004Z,12.80
2023-09-26T15:35:41.956Z,13.60
2023-09-26T15:38:36.118Z,12.50
2023-09-26T15:41:30.158Z,16.20
2023-09-26T15:44:24.329Z,13.40
2023-09-26T15:47:18.267Z,13.30
2023-09-26T15:50:14.728Z,14.20
2023-09-26T15:53:09.138Z,17.60
2023-09-26T15:56:03.047Z,15.80
2023-09-26T15:58:57.096Z,16.00
2023-09-26T16:01:51.654Z,18.00
2023-09-26T16:04:46.386Z,15.80
2023-09-26T16:07:40.593Z,17.50
2023-09-26T16:10:34.543Z,16.10
2023-09-26T16:13:29.046Z,15.20
2023-09-26T16:16:23.022Z,17.00
2023-09-26T16:19:18.287Z,13.90
2023-09-26T16:22:13.054Z,14.00
2023-09-26T16:25:08.346Z,15.80
2023-09-26T16:27:50.947Z,16.20
2023-09-26T16:30:47.493Z,16.20
2023-09-26T16:33:41.541Z,19.40
2023-09-26T16:36:35.464Z,16.30
2023-09-26T16:39:29.624Z,18.20
2023-09-26T16:42:23.497Z,15.70
2023-09-26T16:45:17.472Z,15.30
2023-09-26T16:48:11.920Z,17.10
2023-09-26T16:51:06.739Z,15.70
2023-09-26T16:54:01.971Z,15.40
2023-09-26T16:56:56.026Z,18.70
2023-09-26T16:59:53.460Z,15.50
2023-09-26T17:02:47.827Z,16.70
2023-09-26T17:05:43.287Z,19.70
2023-09-26T17:08:37.504Z,16.60
2023-09-26T17:11:32.325Z,22.20
2023-09-26T17:14:28.303Z,18.00
2023-09-26T17:17:22.408Z,18.40
2023-09-26T17:20:16.692Z,15.80
2023-09-26T17:23:11.386Z,18.70
2023-09-26T17:26:05.601Z,17.50
2023-09-26T17:28:59.482Z,20.30
2023-09-26T17:31:54.185Z,17.30
2023-09-26T17:34:50.516Z,19.80
2023-09-26T17:37:44.611Z,19.70
2023-09-26T17:40:38.869Z,22.10
2023-09-26T17:43:32.827Z,21.40
2023-09-26T17:46:27.329Z,18.70
2023-09-26T17:49:21.309Z,20.80
2023-09-26T17:52:15.637Z,17.90
2023-09-26T17:55:11.381Z,18.60
2023-09-26T17:58:05.312Z,17.20
2023-09-26T18:00:59.507Z,18.00
2023-09-26T18:03:53.703Z,18.20
2023-09-26T18:06:47.904Z,19.10
2023-09-26T18:09:42.595Z,20.40
2023-09-26T18:12:36.524Z,19.60
2023-09-26T18:15:30.594Z,24.80
2023-09-26T18:18:29.116Z,17.30
2023-09-26T18:21:23.136Z,18.10
2023-09-26T18:24:17.552Z,17.30
2023-09-26T18:27:11.774Z,20.20
2023-09-26T18:30:06.597Z,20.30
2023-09-26T18:33:00.526Z,21.20
2023-09-26T18:35:54.939Z,20.10
2023-09-26T18:38:48.868Z,19.90
2023-09-26T18:41:43.025Z,20.80
2023-09-26T18:44:38.654Z,20.70
2023-09-26T18:47:33.232Z,20.80
2023-09-26T18:50:27.617Z,21.10
2023-09-26T18:53:22.437Z,21.80
2023-09-26T18:56:01.285Z,16.00
2023-09-26T18:58:55.703Z,21.00
2023-09-26T19:01:50.927Z,19.80
2023-09-26T19:04:46.354Z,18.60
2023-09-26T19:07:41.101Z,19.50
2023-09-26T19:10:35.182Z,22.10
2023-09-26T19:13:29.088Z,20.70
2023-09-26T19:16:23.086Z,20.20
2023-09-26T19:19:16.943Z,21.60
2023-09-26T19:22:10.821Z,20.30
2023-09-26T19:24:55.039Z,21.70
2023-09-26T19:27:49.067Z,20.40
2023-09-26T19:30:46.167Z,21.90
2023-09-26T19:33:39.991Z,21.70
2023-09-26T19:36:34.393Z,22.80
2023-09-26T19:39:28.705Z,18.60
2023-09-26T19:42:24.084Z,20.10
2023-09-26T19:45:19.296Z,19.60
2023-09-26T19:48:14.784Z,21.30
2023-09-26T19:51:05.521Z,19.20
2023-09-26T19:54:00.184Z,21.70
2023-09-26T19:56:58.768Z,19.60
2023-09-26T19:59:36.092Z,20.30
2023-09-26T20:02:31.327Z,17.40
2023-09-26T20:05:26.007Z,19.60
2023-09-26T20:08:20.288Z,22.90
2023-09-26T20:11:14.368Z,22.20
2023-09-26T20:14:08.521Z,20.60
2023-09-26T20:17:03.001Z,19.90
2023-09-26T20:19:56.961Z,22.10
2023-09-26T20:22:51.415Z,21.40
2023-09-26T20:25:45.787Z,19.20
2023-09-26T20:28:40.381Z,21.40
2023-09-26T20:31:34.783Z,20.90
2023-09-26T20:34:30.016Z,18.60
2023-09-26T20:37:24.313Z,21.60
2023-09-26T20:40:18.422Z,18.30
2023-09-26T20:43:12.342Z,20.30
2023-09-26T20:46:06.619Z,20.20
2023-09-26T20:49:00.683Z,20.40
2023-09-26T20:51:54.656Z,18.90
2023-09-26T20:54:49.105Z,19.80
2023-09-26T20:57:43.685Z,19.10
2023-09-26T21:00:39.049Z,18.90
2023-09-26T21:03:33.234Z,19.80
2023-09-26T21:06:27.836Z,18.50
2023-09-26T21:09:22.106Z,20.90
2023-09-26T21:12:15.930Z,21.00
2023-09-26T21:15:11.689Z,23.80
2023-09-26T21:18:05.845Z,22.20
2023-09-26T21:20:59.953Z,24.70
2023-09-26T21:23:54.537Z,20.90
2023-09-26T21:26:48.727Z,20.80
2023-09-26T21:29:42.944Z,19.70
2023-09-26T21:32:36.958Z,21.90
2023-09-26T21:35:31.245Z,21.10
2023-09-26T21:38:26.077Z,20.40
2023-09-26T21:41:20.248Z,20.50
2023-09-26T21:44:14.689Z,21.90
2023-09-26T21:47:09.113Z,18.30
2023-09-26T21:50:05.148Z,25.60
2023-09-26T21:53:00.012Z,21.00
2023-09-26T21:55:54.818Z,20.60
2023-09-26T21:58:49.063Z,23.70
2023-09-26T22:01:43.572Z,19.80
2023-09-26T22:04:38.509Z,21.00
2023-09-26T22:07:17.687Z,19.20
2023-09-26T22:10:13.202Z,19.60
2023-09-26T22:13:07.695Z,20.50
2023-09-26T22:16:01.957Z,19.00
2023-09-26T22:18:56.045Z,18.60
2023-09-26T22:21:51.749Z,19.10
2023-09-26T22:24:45.903Z,20.20
2023-09-26T22:27:40.283Z,18.60
2023-09-26T22:30:35.576Z,19.10
2023-09-26T22:33:29.680Z,20.20
2023-09-26T22:36:24.765Z,20.20
2023-09-26T22:39:19.811Z,18.10
2023-09-26T22:42:14.146Z,20.80
2023-09-26T22:44:52.380Z,18.50
2023-09-26T22:47:46.538Z,20.70
2023-09-26T22:50:40.648Z,19.00
2023-09-26T22:53:34.817Z,17.60
2023-09-26T22:56:28.873Z,17.10
2023-09-26T22:59:25.463Z,19.40
2023-09-26T23:02:19.513Z,17.70
2023-09-26T23:05:13.961Z,20.60
2023-09-26T23:08:09.301Z,17.70
2023-09-26T23:11:03.668Z,17.90
2023-09-26T23:13:58.052Z,19.50
2023-09-26T23:16:52.027Z,17.80
2023-09-26T23:19:45.975Z,14.80
2023-09-26T23:22:40.609Z,16.60
2023-09-26T23:25:35.373Z,16.50
2023-09-26T23:28:29.811Z,18.30
2023-09-26T23:31:24.611Z,18.50
2023-09-26T23:34:19.038Z,18.10
2023-09-26T23:37:13.135Z,16.30
2023-09-26T23:40:10.890Z,18.10
2023-09-26T23:43:05.608Z,21.20
2023-09-26T23:46:00.179Z,15.90
2023-09-26T23:48:55.203Z,16.20
2023-09-26T23:51:51.126Z,16.70
2023-09-26T23:54:45.622Z,16.00
2023-09-26T23:57:40.137Z,17.90
